Portada
METAR-TAF:

METAR-TAF

Aeroports :

Marigot, Dominica

latitud: 15-32N, longitud: 061-18W, altitud: 13 m

Observació

L'informe es va fer fa 57 minuts, a les 13:00 UTC
Vent 9 kt del Est/Sud-Est
Temperatura 30°C
Humitat 79%
Pressió 1018 hPa
Visibilitat 10 km o més
Cel ennuvolat a una alçada de 1700 ft

METAR: TDPD 041300Z 11009KT 9999 BKN017 30/26 Q1018

Hora: 09:57 (13:57 UTC)

Pronòstic

L'informe es va fer fa 2 hores i 57 minuts, a les 11:00 UTC
Pronòstic vàlid del 04 a les 12 UTC al 05 a les 12 UTC
Vent 4 kt del Est
Visibilitat 10 km o més
Núvols disperses a una alçada de 1800 ft
Probabilitat 30% :
Temporalment
l' 05 a les 06 UTC al 05 a les 12 UTC
Cel ennuvolat a una alçada de 1500 ft

TAF: TDPD 041100Z 0412/0512 10004KT 9999 SCT018 PROB30 TEMPO 0506/0512 BKN015

Observacions i pronòstics meteorològics de més de 4000 aeroports (METAR i TAF).

Les estacions disponibles són els punts grocs i vermells al mapa.

Posi el ratolí al punt desitjat per veure el nom de l'estació.

Feu clic per veure les observacions i els pronòstics meteorològics.

Per canviar el mapa: feu clic els botons verds amb una creu de color negre per apropar; al botó verd amb un guió per allunyar la imatge; o en les fletxes verdes per a mapes adjacents.


METAR-TAF: